Time;durP1;ratioP1;P1;durP2;ratioP2;P2;SDS_P1;SDS_P2;PMS_P1;PMS_P2;Temp;Humidity;BMP_temperature;BMP_pressure;BME280_temperature;BME280_humidity;BME280_pressure;Samples;Min_cycle;Max_cycle;Signal;HPM_P1;HPM_P2
2023/09/22 00:01:21;;;;;;;;;;;16.90;99.90;;;;;;5036851;28;19912;-64
2023/09/22 00:03:47;;;;;;;;;;;16.80;99.90;;;;;;5036460;28;20007;-63
2023/09/22 00:06:14;;;;;;;;;;;16.90;99.90;;;;;;5036535;28;19936;-65
2023/09/22 00:08:39;;;;;;;;;;;16.80;99.90;;;;;;5036608;28;19951;-64
2023/09/22 00:11:08;;;;;;;;;;;16.80;99.90;;;;;;5036371;28;20003;-65
2023/09/22 00:13:34;;;;;;;;;;;16.80;99.90;;;;;;5035877;28;20007;-63
2023/09/22 00:15:59;;;;;;;;;;;16.80;99.90;;;;;;5036122;28;20010;-63
2023/09/22 00:18:25;;;;;;;;;;;16.70;99.90;;;;;;5034849;28;19968;-64
2023/09/22 00:20:50;;;;;;;;;;;16.70;99.90;;;;;;5036180;28;19905;-63
2023/09/22 00:23:16;;;;;;;;;;;16.80;99.90;;;;;;5034665;28;19915;-64
2023/09/22 00:25:41;;;;;;;;;;;16.70;99.90;;;;;;5036436;28;19993;-63
2023/09/22 00:28:07;;;;;;;;;;;16.70;99.90;;;;;;5035871;28;20103;-63
2023/09/22 00:30:32;;;;;;;;;;;16.70;99.90;;;;;;5035757;28;20374;-64
2023/09/22 00:32:58;;;;;;;;;;;16.60;99.90;;;;;;5035984;28;20016;-63
2023/09/22 00:35:24;;;;;;;;;;;16.60;99.90;;;;;;5036071;28;20209;-64
2023/09/22 00:37:50;;;;;;;;;;;16.50;99.90;;;;;;5035992;28;19905;-64
2023/09/22 00:40:15;;;;;;;;;;;16.50;99.90;;;;;;5035743;28;19963;-64
2023/09/22 00:42:41;;;;;;;;;;;16.40;99.90;;;;;;5035850;28;19917;-66
2023/09/22 00:45:07;;;;;;;;;;;16.30;99.90;;;;;;5035599;28;19905;-66
2023/09/22 00:47:33;;;;;;;;;;;16.30;99.90;;;;;;5036850;28;19928;-66
2023/09/22 00:49:58;;;;;;;;;;;16.30;99.90;;;;;;5037313;28;19940;-66
2023/09/22 00:52:24;;;;;;;;;;;16.30;99.90;;;;;;5036347;28;20307;-65
2023/09/22 00:54:50;;;;;;;;;;;16.30;99.90;;;;;;5035450;28;19909;-64
2023/09/22 00:57:17;;;;;;;;;;;16.30;99.90;;;;;;5035340;28;19999;-66
2023/09/22 00:59:43;;;;;;;;;;;16.20;99.90;;;;;;5035116;28;19905;-65
2023/09/22 01:02:09;;;;;;;;;;;16.50;99.90;;;;;;5033909;28;19913;-66
2023/09/22 01:04:35;;;;;;;;;;;16.60;99.90;;;;;;5035318;28;19955;-66
2023/09/22 01:07:00;;;;;;;;;;;16.50;99.90;;;;;;5035169;28;19904;-66
2023/09/22 01:09:26;;;;;;;;;;;16.50;99.90;;;;;;5035634;28;19917;-66
2023/09/22 01:11:51;;;;;;;;;;;16.40;99.90;;;;;;5035146;28;19927;-67
2023/09/22 01:14:17;;;;;;;;;;;16.50;99.90;;;;;;5033376;28;19909;-66
2023/09/22 01:16:42;;;;;;;;;;;16.40;99.90;;;;;;5033871;28;19905;-65
2023/09/22 01:19:17;;;;;;;;;;;16.40;99.90;;;;;;5035858;28;20304;-66
2023/09/22 01:21:43;;;;;;;;;;;16.30;99.90;;;;;;5035633;28;19965;-66
2023/09/22 01:24:12;;;;;;;;;;;16.20;99.90;;;;;;5034152;28;20398;-66
2023/09/22 01:26:38;;;;;;;;;;;16.20;99.90;;;;;;5035262;28;19995;-65
2023/09/22 01:29:04;;;;;;;;;;;16.20;99.90;;;;;;5034426;28;20268;-65
2023/09/22 01:31:29;;;;;;;;;;;16.30;99.90;;;;;;5034687;28;19912;-65
2023/09/22 01:33:55;;;;;;;;;;;16.50;99.90;;;;;;5034623;28;19916;-66
2023/09/22 01:36:20;;;;;;;;;;;16.50;99.90;;;;;;5034525;28;19916;-67
2023/09/22 01:38:46;;;;;;;;;;;16.50;99.90;;;;;;5034368;28;19909;-66
2023/09/22 01:41:11;;;;;;;;;;;16.50;99.90;;;;;;5034351;28;20338;-66
2023/09/22 01:43:37;;;;;;;;;;;16.40;99.90;;;;;;5034408;28;19913;-66
2023/09/22 01:46:03;;;;;;;;;;;16.30;99.90;;;;;;5034406;28;19912;-65
2023/09/22 01:48:28;;;;;;;;;;;16.20;99.90;;;;;;5034305;28;19905;-66
2023/09/22 01:50:59;;;;;;;;;;;16.10;99.90;;;;;;5034248;28;19905;-66
2023/09/22 01:53:25;;;;;;;;;;;16.10;99.90;;;;;;5034349;28;19912;-66
2023/09/22 01:55:50;;;;;;;;;;;16.00;99.90;;;;;;5034306;28;19905;-66
2023/09/22 01:58:16;;;;;;;;;;;16.00;99.90;;;;;;5032765;28;19909;-65
2023/09/22 02:00:41;;;;;;;;;;;16.20;99.90;;;;;;5033841;28;19911;-65
2023/09/22 02:03:06;;;;;;;;;;;16.20;99.90;;;;;;5033959;28;20283;-66
2023/09/22 02:05:32;;;;;;;;;;;16.20;99.90;;;;;;5034183;28;19947;-66
2023/09/22 02:07:57;;;;;;;;;;;16.20;99.90;;;;;;5032767;28;19944;-65
2023/09/22 02:10:23;;;;;;;;;;;16.40;99.90;;;;;;5033921;28;20351;-65
2023/09/22 02:12:48;;;;;;;;;;;16.50;99.90;;;;;;5034014;28;19905;-65
2023/09/22 02:15:14;;;;;;;;;;;16.50;99.90;;;;;;5033591;28;19913;-65
2023/09/22 02:17:40;;;;;;;;;;;16.50;99.90;;;;;;5033832;28;19983;-65
2023/09/22 02:20:21;;;;;;;;;;;16.60;99.90;;;;;;5033762;28;20155;-65
2023/09/22 02:22:48;;;;;;;;;;;16.60;99.90;;;;;;5034059;28;20336;-65
2023/09/22 02:25:15;;;;;;;;;;;16.50;99.90;;;;;;5033637;28;19927;-66
2023/09/22 02:27:41;;;;;;;;;;;16.50;99.90;;;;;;5033667;28;19919;-66
2023/09/22 02:30:08;;;;;;;;;;;16.50;99.90;;;;;;5033259;28;19916;-66
2023/09/22 02:32:34;;;;;;;;;;;16.50;99.90;;;;;;5033493;28;20340;-65
2023/09/22 02:34:59;;;;;;;;;;;16.50;99.90;;;;;;5034098;28;19916;-66
2023/09/22 02:37:25;;;;;;;;;;;16.60;99.90;;;;;;5033513;28;19998;-65
2023/09/22 02:39:50;;;;;;;;;;;16.50;99.90;;;;;;5033926;28;19905;-65
2023/09/22 02:42:17;;;;;;;;;;;16.50;99.90;;;;;;5031917;28;19909;-65
2023/09/22 02:44:42;;;;;;;;;;;16.30;99.90;;;;;;5033310;28;20042;-65
2023/09/22 02:47:08;;;;;;;;;;;16.30;99.90;;;;;;5033187;28;19909;-66
2023/09/22 02:49:33;;;;;;;;;;;16.30;99.90;;;;;;5033240;28;19905;-66
2023/09/22 02:51:58;;;;;;;;;;;16.30;99.90;;;;;;5032488;28;19905;-67
2023/09/22 02:54:24;;;;;;;;;;;16.20;99.90;;;;;;5032943;28;19923;-66
2023/09/22 02:56:49;;;;;;;;;;;16.20;99.90;;;;;;5033225;28;19996;-66
2023/09/22 02:59:15;;;;;;;;;;;16.30;99.90;;;;;;5032895;28;19912;-65
2023/09/22 03:01:43;;;;;;;;;;;16.20;99.90;;;;;;5033181;28;19959;-65
2023/09/22 03:04:09;;;;;;;;;;;16.30;99.90;;;;;;5032868;28;19905;-65
2023/09/22 03:06:35;;;;;;;;;;;16.20;99.90;;;;;;5033286;28;19909;-65
2023/09/22 03:09:01;;;;;;;;;;;16.20;99.90;;;;;;5033164;28;20355;-65
2023/09/22 03:11:26;;;;;;;;;;;16.30;99.90;;;;;;5031956;28;19909;-66
2023/09/22 03:13:51;;;;;;;;;;;16.30;99.90;;;;;;5033891;28;20359;-64
2023/09/22 03:16:17;;;;;;;;;;;16.30;99.90;;;;;;5034101;28;19909;-65
2023/09/22 03:18:42;;;;;;;;;;;16.30;99.90;;;;;;5033248;28;19912;-66
2023/09/22 03:21:08;;;;;;;;;;;16.20;99.90;;;;;;5033092;28;20347;-66
2023/09/22 03:23:33;;;;;;;;;;;16.30;99.90;;;;;;5021687;28;20379;-66
2023/09/22 03:26:02;;;;;;;;;;;16.30;99.90;;;;;;5013528;28;20309;-66
2023/09/22 03:28:28;;;;;;;;;;;16.20;99.90;;;;;;5013325;28;20257;-66
2023/09/22 03:30:53;;;;;;;;;;;16.30;99.90;;;;;;5011903;28;19906;-66
2023/09/22 03:33:19;;;;;;;;;;;16.30;99.90;;;;;;5013557;28;19928;-66
2023/09/22 03:35:46;;;;;;;;;;;16.20;99.90;;;;;;5013639;28;19909;-66
2023/09/22 03:38:15;;;;;;;;;;;16.20;99.90;;;;;;5013298;28;19988;-67
2023/09/22 03:40:41;;;;;;;;;;;16.20;99.90;;;;;;5013255;28;20423;-66
2023/09/22 03:43:07;;;;;;;;;;;16.10;99.90;;;;;;5013071;28;20008;-66
2023/09/22 03:45:33;;;;;;;;;;;16.00;99.90;;;;;;5013015;28;19906;-67
2023/09/22 03:47:58;;;;;;;;;;;16.00;99.90;;;;;;5013031;28;19906;-66
2023/09/22 03:50:23;;;;;;;;;;;15.90;99.90;;;;;;5026045;28;19905;-66
2023/09/22 03:52:49;;;;;;;;;;;15.90;99.90;;;;;;5035136;28;19905;-65
2023/09/22 03:55:15;;;;;;;;;;;15.80;99.90;;;;;;5034005;28;19960;-65
2023/09/22 03:57:41;;;;;;;;;;;15.80;99.90;;;;;;5031762;28;19912;-66
2023/09/22 04:00:17;;;;;;;;;;;15.80;99.90;;;;;;5032718;28;19909;-66
2023/09/22 04:02:42;;;;;;;;;;;16.00;99.90;;;;;;5034990;28;19912;-65
2023/09/22 04:05:08;;;;;;;;;;;16.10;99.90;;;;;;5036329;28;19905;-65
2023/09/22 04:07:35;;;;;;;;;;;16.20;99.90;;;;;;5036680;28;19905;-65
2023/09/22 04:10:01;;;;;;;;;;;16.00;99.90;;;;;;5036398;28;19905;-66
2023/09/22 04:12:27;;;;;;;;;;;15.80;99.90;;;;;;5036482;28;20347;-66
2023/09/22 04:14:52;;;;;;;;;;;15.80;99.90;;;;;;5035993;28;20008;-66
2023/09/22 04:17:18;;;;;;;;;;;15.80;99.90;;;;;;5036605;28;19948;-66
2023/09/22 04:19:43;;;;;;;;;;;15.80;99.90;;;;;;5036085;28;19905;-66
2023/09/22 04:22:11;;;;;;;;;;;15.70;99.90;;;;;;5036038;28;19959;-66
2023/09/22 04:24:47;;;;;;;;;;;15.90;99.90;;;;;;5034648;28;19909;-67
2023/09/22 04:27:14;;;;;;;;;;;15.90;99.90;;;;;;5035846;28;20001;-66
2023/09/22 04:29:39;;;;;;;;;;;15.80;99.90;;;;;;5035562;28;20256;-66
2023/09/22 04:32:05;;;;;;;;;;;15.80;99.90;;;;;;5035257;28;19912;-66
2023/09/22 04:34:31;;;;;;;;;;;15.80;99.90;;;;;;5001916;28;20353;-64
2023/09/22 04:36:56;;;;;;;;;;;15.80;99.90;;;;;;4996745;28;19976;-65
2023/09/22 04:39:22;;;;;;;;;;;15.80;99.90;;;;;;4996415;28;20360;-65
2023/09/22 04:41:47;;;;;;;;;;;15.80;99.90;;;;;;4997679;28;19960;-62
2023/09/22 04:44:12;;;;;;;;;;;15.80;99.90;;;;;;5014743;28;20299;-63
2023/09/22 04:46:38;;;;;;;;;;;16.00;99.90;;;;;;5035894;28;19905;-65
2023/09/22 04:49:04;;;;;;;;;;;16.20;99.90;;;;;;5034510;28;19905;-64
2023/09/22 04:51:29;;;;;;;;;;;16.20;99.90;;;;;;5035830;28;20000;-65
2023/09/22 04:53:55;;;;;;;;;;;16.20;99.90;;;;;;5035478;28;19916;-66
2023/09/22 04:56:22;;;;;;;;;;;16.10;99.90;;;;;;5035569;28;19999;-65
2023/09/22 04:58:47;;;;;;;;;;;16.10;99.90;;;;;;5035560;28;19913;-65
2023/09/22 05:01:14;;;;;;;;;;;16.00;99.90;;;;;;5035265;28;20406;-66
2023/09/22 05:03:40;;;;;;;;;;;16.00;99.90;;;;;;5035566;28;19924;-64
2023/09/22 05:06:06;;;;;;;;;;;15.90;99.90;;;;;;5020352;28;19913;-64
2023/09/22 05:08:32;;;;;;;;;;;15.90;99.90;;;;;;5015565;28;20001;-65
2023/09/22 05:10:59;;;;;;;;;;;15.90;99.90;;;;;;5015427;28;19945;-65
2023/09/22 05:13:24;;;;;;;;;;;16.00;99.90;;;;;;5014552;28;20383;-65
2023/09/22 05:15:50;;;;;;;;;;;16.10;99.90;;;;;;5015014;28;20368;-66
2023/09/22 05:18:15;;;;;;;;;;;16.10;99.90;;;;;;5015400;28;19952;-63
2023/09/22 05:20:41;;;;;;;;;;;16.10;99.90;;;;;;5030033;28;19905;-63
2023/09/22 05:23:07;;;;;;;;;;;16.20;99.90;;;;;;5035272;28;20338;-64
2023/09/22 05:25:37;;;;;;;;;;;16.20;99.90;;;;;;5035277;28;19910;-64
2023/09/22 05:28:04;;;;;;;;;;;16.20;99.90;;;;;;5033574;28;19987;-63
2023/09/22 05:30:31;;;;;;;;;;;16.30;99.90;;;;;;5034545;28;19905;-62
2023/09/22 05:32:57;;;;;;;;;;;16.30;99.90;;;;;;5034727;28;19916;-62
2023/09/22 05:35:23;;;;;;;;;;;16.20;99.90;;;;;;5034527;28;20287;-63
2023/09/22 05:37:52;;;;;;;;;;;16.30;99.90;;;;;;5034732;28;19916;-62
2023/09/22 05:40:17;;;;;;;;;;;16.20;99.90;;;;;;5034782;28;19936;-63
2023/09/22 05:42:43;;;;;;;;;;;16.40;99.90;;;;;;5034397;28;19959;-61
2023/09/22 05:45:09;;;;;;;;;;;16.30;99.90;;;;;;5033089;28;19905;-61
2023/09/22 05:47:35;;;;;;;;;;;16.20;99.90;;;;;;5032792;28;19908;-63
2023/09/22 05:50:04;;;;;;;;;;;16.20;99.90;;;;;;5034909;28;19905;-62
2023/09/22 05:52:30;;;;;;;;;;;16.10;99.90;;;;;;5034740;28;20292;-62
2023/09/22 05:54:56;;;;;;;;;;;16.00;99.90;;;;;;5034064;28;19913;-61
2023/09/22 05:57:21;;;;;;;;;;;15.90;99.90;;;;;;5034907;28;19905;-62
2023/09/22 05:59:48;;;;;;;;;;;15.90;99.90;;;;;;5034184;28;19912;-59
2023/09/22 06:02:14;;;;;;;;;;;15.80;99.90;;;;;;5034402;28;19955;-62
2023/09/22 06:04:39;;;;;;;;;;;15.80;99.90;;;;;;5034364;28;20007;-63
2023/09/22 06:07:12;;;;;;;;;;;15.70;99.90;;;;;;5034408;28;19905;-63
2023/09/22 06:09:38;;;;;;;;;;;15.60;99.90;;;;;;5034425;28;19908;-62
2023/09/22 06:12:03;;;;;;;;;;;15.50;99.90;;;;;;5034743;28;19912;-63
2023/09/22 06:14:29;;;;;;;;;;;15.60;99.90;;;;;;5033409;28;19909;-59
2023/09/22 06:16:54;;;;;;;;;;;15.50;99.90;;;;;;5033877;28;19911;-61
2023/09/22 06:19:20;;;;;;;;;;;15.50;99.90;;;;;;5034048;28;20330;-59
2023/09/22 06:21:45;;;;;;;;;;;15.50;99.90;;;;;;5033772;28;19983;-59
2023/09/22 06:24:11;;;;;;;;;;;15.60;99.90;;;;;;5034970;28;19959;-61
2023/09/22 06:26:36;;;;;;;;;;;15.80;99.90;;;;;;5033967;28;19963;-64
2023/09/22 06:29:02;;;;;;;;;;;15.90;99.90;;;;;;5033923;28;19951;-65
2023/09/22 06:31:27;;;;;;;;;;;15.80;99.90;;;;;;5034991;28;19905;-62
2023/09/22 06:33:53;;;;;;;;;;;15.70;99.90;;;;;;5035577;28;19909;-62
2023/09/22 06:36:18;;;;;;;;;;;15.60;99.90;;;;;;5035447;28;19956;-63
2023/09/22 06:38:44;;;;;;;;;;;15.60;99.90;;;;;;5035208;28;20379;-65
2023/09/22 06:41:16;;;;;;;;;;;15.50;99.90;;;;;;5033839;28;19912;-63
2023/09/22 06:43:41;;;;;;;;;;;15.60;99.90;;;;;;5033661;28;19917;-66
2023/09/22 06:46:06;;;;;;;;;;;15.60;99.90;;;;;;5032949;28;19959;-66
2023/09/22 06:48:32;;;;;;;;;;;15.70;99.90;;;;;;5033641;28;19913;-66
2023/09/22 06:50:58;;;;;;;;;;;15.70;99.90;;;;;;5033299;28;20000;-67
2023/09/22 06:53:24;;;;;;;;;;;15.80;99.90;;;;;;5034672;28;19929;-67
2023/09/22 06:55:59;;;;;;;;;;;15.90;99.90;;;;;;5036398;28;19927;-69
2023/09/22 06:58:25;;;;;;;;;;;15.90;99.90;;;;;;5033084;28;19911;-66
2023/09/22 07:00:50;;;;;;;;;;;15.90;99.90;;;;;;5033049;28;19983;-65
2023/09/22 07:03:16;;;;;;;;;;;15.90;99.90;;;;;;5033487;28;20280;-64
2023/09/22 07:05:43;;;;;;;;;;;16.00;99.90;;;;;;5033358;28;20316;-65
2023/09/22 07:08:09;;;;;;;;;;;15.90;99.90;;;;;;5031794;28;19941;-64
2023/09/22 07:10:35;;;;;;;;;;;15.90;99.90;;;;;;5033019;28;19967;-66
2023/09/22 07:13:02;;;;;;;;;;;16.20;99.90;;;;;;5033146;28;19912;-66
2023/09/22 07:15:27;;;;;;;;;;;16.00;99.90;;;;;;5032670;28;20036;-64
2023/09/22 07:17:53;;;;;;;;;;;15.90;99.90;;;;;;5032914;28;19913;-65
2023/09/22 07:20:19;;;;;;;;;;;15.90;99.90;;;;;;5032671;28;19912;-65
2023/09/22 07:22:44;;;;;;;;;;;15.90;99.90;;;;;;5033135;28;20431;-65
2023/09/22 07:25:11;;;;;;;;;;;16.00;99.90;;;;;;5033127;28;20326;-65
2023/09/22 07:27:39;;;;;;;;;;;16.10;99.90;;;;;;5033019;28;19909;-66
2023/09/22 07:30:10;;;;;;;;;;;16.00;99.90;;;;;;5032839;28;19912;-66
2023/09/22 07:32:35;;;;;;;;;;;15.70;99.90;;;;;;5033042;28;19905;-65
2023/09/22 07:35:01;;;;;;;;;;;15.60;99.90;;;;;;5032822;28;19932;-65
2023/09/22 07:37:27;;;;;;;;;;;15.40;99.90;;;;;;5034625;28;19951;-67
2023/09/22 07:39:53;;;;;;;;;;;15.30;99.90;;;;;;5036856;28;19909;-66
2023/09/22 07:42:18;;;;;;;;;;;15.30;99.90;;;;;;5036552;28;19912;-66
2023/09/22 07:44:44;;;;;;;;;;;15.30;99.90;;;;;;5036988;28;19909;-67
2023/09/22 07:47:14;;;;;;;;;;;15.30;99.90;;;;;;5037042;28;19928;-67
2023/09/22 07:49:40;;;;;;;;;;;15.20;99.90;;;;;;5036540;28;20327;-66
2023/09/22 07:52:10;;;;;;;;;;;15.30;99.90;;;;;;5036996;28;19967;-65
2023/09/22 07:54:38;;;;;;;;;;;15.30;99.90;;;;;;5036951;28;20232;-66
2023/09/22 07:57:04;;;;;;;;;;;15.40;99.90;;;;;;5037070;28;19912;-67
2023/09/22 07:59:30;;;;;;;;;;;15.50;99.90;;;;;;5036649;28;20020;-66
2023/09/22 08:01:56;;;;;;;;;;;15.60;99.90;;;;;;5036553;28;20295;-67
2023/09/22 08:04:23;;;;;;;;;;;15.70;99.90;;;;;;5036293;28;19959;-67
2023/09/22 08:06:49;;;;;;;;;;;15.70;99.90;;;;;;5036482;28;19996;-66
2023/09/22 08:09:14;;;;;;;;;;;15.70;99.90;;;;;;5036284;28;19952;-66
2023/09/22 08:11:40;;;;;;;;;;;15.60;99.90;;;;;;5036126;28;20008;-65
2023/09/22 08:14:05;;;;;;;;;;;15.70;99.90;;;;;;5035783;28;19912;-66
2023/09/22 08:16:31;;;;;;;;;;;15.80;99.90;;;;;;5035970;28;19905;-67
2023/09/22 08:18:57;;;;;;;;;;;15.90;99.90;;;;;;5035630;28;19915;-66
2023/09/22 08:21:23;;;;;;;;;;;16.10;99.90;;;;;;5016285;28;19955;-66
2023/09/22 08:23:49;;;;;;;;;;;16.20;99.90;;;;;;5016469;28;19916;-67
2023/09/22 08:26:17;;;;;;;;;;;16.30;99.90;;;;;;5016175;28;19906;-66
2023/09/22 08:28:46;;;;;;;;;;;16.30;99.90;;;;;;5016149;28;19992;-66
2023/09/22 08:31:11;;;;;;;;;;;16.50;99.90;;;;;;5016036;28;19973;-66
2023/09/22 08:33:37;;;;;;;;;;;16.70;99.90;;;;;;5016202;28;19905;-68
2023/09/22 08:36:03;;;;;;;;;;;16.80;99.90;;;;;;5016149;28;19906;-67
2023/09/22 08:38:30;;;;;;;;;;;16.90;99.90;;;;;;5015960;28;19905;-66
2023/09/22 08:40:56;;;;;;;;;;;16.90;99.90;;;;;;5015633;28;19936;-66
2023/09/22 08:43:23;;;;;;;;;;;17.00;99.90;;;;;;5016123;28;20352;-64
2023/09/22 08:45:49;;;;;;;;;;;17.10;99.90;;;;;;5015789;28;19905;-65
2023/09/22 08:48:14;;;;;;;;;;;17.10;99.90;;;;;;5014719;28;19912;-66
2023/09/22 08:50:39;;;;;;;;;;;17.00;99.90;;;;;;5030293;28;20370;-66
2023/09/22 08:53:05;;;;;;;;;;;17.00;99.90;;;;;;5035354;28;20264;-66
2023/09/22 08:55:32;;;;;;;;;;;16.90;99.90;;;;;;5035086;28;19917;-65
2023/09/22 08:57:57;;;;;;;;;;;16.90;99.90;;;;;;5035755;28;19905;-64
2023/09/22 09:00:26;;;;;;;;;;;16.90;99.90;;;;;;5035119;28;19905;-66
2023/09/22 09:02:54;;;;;;;;;;;17.00;99.90;;;;;;5033663;28;19943;-65
2023/09/22 09:05:24;;;;;;;;;;;16.80;99.90;;;;;;5034980;28;20356;-65
2023/09/22 09:07:50;;;;;;;;;;;16.80;99.90;;;;;;5035071;28;19905;-66
2023/09/22 09:10:29;;;;;;;;;;;16.90;99.90;;;;;;5035251;28;19906;-66
2023/09/22 09:12:56;;;;;;;;;;;16.80;99.90;;;;;;5034984;28;19966;-66
2023/09/22 09:15:23;;;;;;;;;;;16.90;99.90;;;;;;5033518;28;19944;-66
2023/09/22 09:18:01;;;;;;;;;;;16.80;99.90;;;;;;5034955;28;19905;-66
2023/09/22 09:20:26;;;;;;;;;;;16.70;99.90;;;;;;5033488;28;20002;-65
2023/09/22 09:22:51;;;;;;;;;;;16.70;99.90;;;;;;5033467;28;19909;-66
2023/09/22 09:25:18;;;;;;;;;;;16.60;99.90;;;;;;5034730;28;19912;-65
2023/09/22 09:27:43;;;;;;;;;;;16.70;99.90;;;;;;5034940;28;19913;-65
2023/09/22 09:30:13;;;;;;;;;;;16.80;99.90;;;;;;5033694;28;19905;-65
2023/09/22 09:32:40;;;;;;;;;;;16.80;99.90;;;;;;5034681;28;19912;-65
2023/09/22 09:35:06;;;;;;;;;;;16.80;99.90;;;;;;5033436;28;19936;-66
2023/09/22 09:37:31;;;;;;;;;;;16.90;99.90;;;;;;5035120;28;19905;-65
2023/09/22 09:39:58;;;;;;;;;;;17.20;99.90;;;;;;5035212;28;19955;-65
2023/09/22 09:42:24;;;;;;;;;;;17.90;99.90;;;;;;5034905;28;19960;-66
2023/09/22 09:44:50;;;;;;;;;;;18.20;99.90;;;;;;5035095;28;19909;-65
2023/09/22 09:47:20;;;;;;;;;;;19.30;99.90;;;;;;5033154;28;19905;-65
2023/09/22 09:49:49;;;;;;;;;;;21.90;99.90;;;;;;5034477;28;19909;-65
2023/09/22 09:52:16;;;;;;;;;;;24.80;99.90;;;;;;5034623;28;19927;-65
2023/09/22 09:54:45;;;;;;;;;;;25.90;99.90;;;;;;5034629;28;20014;-65
2023/09/22 09:57:10;;;;;;;;;;;26.40;99.90;;;;;;5035105;28;19912;-66
2023/09/22 09:59:38;;;;;;;;;;;25.60;99.90;;;;;;5034493;28;19909;-66
2023/09/22 10:02:04;;;;;;;;;;;25.50;99.90;;;;;;5033130;28;20278;-65
2023/09/22 10:04:29;;;;;;;;;;;24.40;99.90;;;;;;5034705;28;20004;-65
2023/09/22 10:06:55;;;;;;;;;;;23.90;99.90;;;;;;5034570;28;19948;-66
2023/09/22 10:09:21;;;;;;;;;;;23.50;99.90;;;;;;5034536;28;19948;-65
2023/09/22 10:11:48;;;;;;;;;;;24.20;99.90;;;;;;5034243;28;19913;-66
2023/09/22 10:14:32;;;;;;;;;;;26.00;99.90;;;;;;5034232;28;19913;-66
2023/09/22 10:16:59;;;;;;;;;;;27.20;99.00;;;;;;5033728;28;19911;-65
2023/09/22 10:19:40;;;;;;;;;;;27.80;96.30;;;;;;5033881;28;19911;-66
2023/09/22 10:22:11;;;;;;;;;;;28.40;96.60;;;;;;5034416;28;19955;-66
2023/09/22 10:24:38;;;;;;;;;;;29.90;94.80;;;;;;5034345;28;19908;-65
2023/09/22 10:27:11;;;;;;;;;;;29.00;94.40;;;;;;5033953;28;19912;-65
2023/09/22 10:29:42;;;;;;;;;;;27.40;95.80;;;;;;5033947;28;19909;-65
2023/09/22 10:32:16;;;;;;;;;;;25.40;97.50;;;;;;5033468;28;19959;-65
2023/09/22 10:35:05;;;;;;;;;;;25.00;98.90;;;;;;5033888;28;19924;-66
2023/09/22 10:37:33;;;;;;;;;;;27.10;97.10;;;;;;5034386;28;19905;-66
2023/09/22 10:40:11;;;;;;;;;;;28.40;94.40;;;;;;5032598;28;19920;-65
2023/09/22 10:42:41;;;;;;;;;;;29.40;93.20;;;;;;5033801;28;20008;-65
2023/09/22 10:45:07;;;;;;;;;;;29.20;92.70;;;;;;5033793;28;19910;-65
2023/09/22 10:47:40;;;;;;;;;;;29.50;92.50;;;;;;5033522;28;20357;-65
2023/09/22 10:50:15;;;;;;;;;;;29.60;91.40;;;;;;5033647;28;20364;-65
2023/09/22 10:52:48;;;;;;;;;;;29.50;91.50;;;;;;5033678;28;19912;-65
2023/09/22 10:55:20;;;;;;;;;;;29.90;91.50;;;;;;5033765;28;20243;-64
2023/09/22 10:57:46;;;;;;;;;;;30.60;90.50;;;;;;5034221;28;19905;-65
2023/09/22 11:00:13;;;;;;;;;;;30.50;89.40;;;;;;5033839;28;20328;-65
2023/09/22 11:02:39;;;;;;;;;;;28.30;90.60;;;;;;5033802;28;19940;-65
2023/09/22 11:05:05;;;;;;;;;;;26.70;92.70;;;;;;5033892;28;19924;-65
2023/09/22 11:07:34;;;;;;;;;;;25.40;93.70;;;;;;5034474;28;19905;-65
2023/09/22 11:10:00;;;;;;;;;;;24.10;95.20;;;;;;5033716;28;19909;-65
2023/09/22 11:12:28;;;;;;;;;;;23.30;96.10;;;;;;5033158;28;19905;-65
2023/09/22 11:14:54;;;;;;;;;;;22.70;97.00;;;;;;5033692;28;19908;-65
2023/09/22 11:17:20;;;;;;;;;;;22.20;98.40;;;;;;5033800;28;20283;-65
2023/09/22 11:19:53;;;;;;;;;;;22.00;97.40;;;;;;5034389;28;19912;-66
2023/09/22 11:22:19;;;;;;;;;;;21.50;97.80;;;;;;5033605;28;19905;-65
2023/09/22 11:24:45;;;;;;;;;;;21.40;99.10;;;;;;5033939;28;20012;-65
2023/09/22 11:27:11;;;;;;;;;;;21.40;99.20;;;;;;5033712;28;19905;-65
2023/09/22 11:29:38;;;;;;;;;;;21.40;99.20;;;;;;5032598;28;19916;-65
2023/09/22 11:32:05;;;;;;;;;;;21.40;98.00;;;;;;5033343;28;19909;-63
2023/09/22 11:34:32;;;;;;;;;;;21.40;97.60;;;;;;5033447;28;20298;-62
2023/09/22 11:36:57;;;;;;;;;;;21.30;98.10;;;;;;5031651;28;19914;-63
2023/09/22 11:39:34;;;;;;;;;;;21.30;98.00;;;;;;5016124;28;19906;-63
2023/09/22 11:42:01;;;;;;;;;;;21.30;97.50;;;;;;5015495;28;19952;-66
2023/09/22 11:44:27;;;;;;;;;;;21.30;97.10;;;;;;5014781;28;19953;-65
2023/09/22 11:46:52;;;;;;;;;;;21.30;96.20;;;;;;5013314;28;19955;-65
2023/09/22 11:49:18;;;;;;;;;;;21.10;96.70;;;;;;5013893;28;20000;-63
2023/09/22 11:51:43;;;;;;;;;;;20.90;97.30;;;;;;5012226;28;19905;-59
2023/09/22 11:54:10;;;;;;;;;;;20.90;97.70;;;;;;5013427;28;19916;-64
2023/09/22 11:56:36;;;;;;;;;;;20.80;97.90;;;;;;5013861;28;20264;-62
2023/09/22 11:59:19;;;;;;;;;;;20.80;98.20;;;;;;5026609;28;20267;-62
2023/09/22 12:01:46;;;;;;;;;;;20.80;97.80;;;;;;5033527;28;20284;-64
2023/09/22 12:04:11;;;;;;;;;;;20.80;98.70;;;;;;5033998;28;20386;-65
2023/09/22 12:06:40;;;;;;;;;;;20.80;99.10;;;;;;5033299;28;19909;-65
2023/09/22 12:09:10;;;;;;;;;;;20.80;99.50;;;;;;5033414;28;20303;-64
2023/09/22 12:11:35;;;;;;;;;;;20.80;99.90;;;;;;5032181;28;19905;-64
2023/09/22 12:14:01;;;;;;;;;;;20.60;99.90;;;;;;5033721;28;19959;-64
2023/09/22 12:16:27;;;;;;;;;;;20.40;99.90;;;;;;5033766;28;20371;-63
2023/09/22 12:18:52;;;;;;;;;;;20.00;99.90;;;;;;5033496;28;20438;-65
2023/09/22 12:21:18;;;;;;;;;;;19.70;99.90;;;;;;5032732;28;19912;-65
2023/09/22 12:23:44;;;;;;;;;;;19.30;99.90;;;;;;5034554;28;19985;-64
2023/09/22 12:26:10;;;;;;;;;;;19.10;99.90;;;;;;5023486;28;19929;-63
2023/09/22 12:28:35;;;;;;;;;;;19.20;99.90;;;;;;5026008;28;19909;-63
2023/09/22 12:31:00;;;;;;;;;;;19.30;99.90;;;;;;5036350;28;19905;-62
2023/09/22 12:33:26;;;;;;;;;;;19.40;99.90;;;;;;5036116;28;19908;-65
2023/09/22 12:35:52;;;;;;;;;;;19.30;99.90;;;;;;5035982;28;19909;-65
2023/09/22 12:38:17;;;;;;;;;;;19.40;99.90;;;;;;5036203;28;19923;-65
2023/09/22 12:40:43;;;;;;;;;;;19.40;99.90;;;;;;5036034;28;19905;-64
2023/09/22 12:43:09;;;;;;;;;;;19.60;99.90;;;;;;5035831;28;20396;-64
2023/09/22 12:45:35;;;;;;;;;;;19.70;99.90;;;;;;5033372;28;19921;-64
2023/09/22 12:48:01;;;;;;;;;;;19.80;99.90;;;;;;5018791;28;19943;-67
2023/09/22 12:50:27;;;;;;;;;;;19.90;99.90;;;;;;5019176;28;19910;-66
2023/09/22 12:52:53;;;;;;;;;;;20.00;99.90;;;;;;5019555;28;19906;-66
2023/09/22 12:55:18;;;;;;;;;;;20.00;99.90;;;;;;5020473;28;20288;-66
2023/09/22 12:57:44;;;;;;;;;;;20.10;99.90;;;;;;5022218;28;19912;-67
2023/09/22 13:00:11;;;;;;;;;;;20.20;99.90;;;;;;5041054;28;19959;-66
2023/09/22 13:02:39;;;;;;;;;;;20.40;99.90;;;;;;5039674;28;19936;-67
2023/09/22 13:05:05;;;;;;;;;;;20.30;99.90;;;;;;5041783;28;19905;-67
2023/09/22 13:07:31;;;;;;;;;;;20.30;99.90;;;;;;5039644;28;19913;-66
2023/09/22 13:09:57;;;;;;;;;;;20.40;99.90;;;;;;5039173;28;19920;-67
2023/09/22 13:12:24;;;;;;;;;;;20.70;99.90;;;;;;5040713;28;19905;-67
2023/09/22 13:14:53;;;;;;;;;;;21.00;99.90;;;;;;5041862;28;19908;-66
2023/09/22 13:17:19;;;;;;;;;;;21.20;99.90;;;;;;5040520;28;19905;-67
2023/09/22 13:19:44;;;;;;;;;;;21.40;99.90;;;;;;5036912;28;19909;-69
2023/09/22 13:22:11;;;;;;;;;;;21.80;99.90;;;;;;5035520;28;19905;-65
2023/09/22 13:24:37;;;;;;;;;;;21.90;99.90;;;;;;5035646;28;19955;-65
2023/09/22 13:27:04;;;;;;;;;;;22.10;98.70;;;;;;5035408;28;19905;-64
2023/09/22 13:29:30;;;;;;;;;;;22.10;99.00;;;;;;5035213;28;19905;-67
2023/09/22 13:31:55;;;;;;;;;;;22.00;97.30;;;;;;5034700;28;19912;-66
2023/09/22 13:34:21;;;;;;;;;;;22.20;97.90;;;;;;5034604;28;19909;-69
2023/09/22 13:36:46;;;;;;;;;;;22.50;97.50;;;;;;5033703;28;20008;-66
2023/09/22 13:39:13;;;;;;;;;;;22.60;97.10;;;;;;5034894;28;19912;-66
2023/09/22 13:41:39;;;;;;;;;;;22.50;97.20;;;;;;5035273;28;19905;-69
2023/09/22 13:44:07;;;;;;;;;;;22.20;96.30;;;;;;5036105;28;19936;-69
2023/09/22 13:46:33;;;;;;;;;;;21.90;96.60;;;;;;5035717;28;19905;-67
2023/09/22 13:48:58;;;;;;;;;;;21.60;97.30;;;;;;5036041;28;19947;-68
2023/09/22 13:51:29;;;;;;;;;;;21.50;97.30;;;;;;5035131;28;19905;-67
2023/09/22 13:53:54;;;;;;;;;;;21.60;96.40;;;;;;5034119;28;19913;-68
2023/09/22 13:56:20;;;;;;;;;;;21.60;96.70;;;;;;5034262;28;19951;-67
2023/09/22 13:58:47;;;;;;;;;;;21.60;96.50;;;;;;5034701;28;19908;-68
2023/09/22 14:01:13;;;;;;;;;;;21.50;96.80;;;;;;5034189;28;19951;-68
2023/09/22 14:03:39;;;;;;;;;;;21.40;97.30;;;;;;5034241;28;19920;-66
2023/09/22 14:06:04;;;;;;;;;;;21.40;97.80;;;;;;5034401;28;20015;-65
2023/09/22 14:08:30;;;;;;;;;;;21.50;97.60;;;;;;5034576;28;19959;-66
2023/09/22 14:10:56;;;;;;;;;;;21.40;96.50;;;;;;5034256;28;20322;-67
2023/09/22 14:13:21;;;;;;;;;;;21.20;96.60;;;;;;5034441;28;19912;-65